AAL4523 KDFW-KMSP
Flight info
| Callsign | AAL4523 |
|---|---|
| Flight time | N/A |
| Altitude | 37000 |
| Route | BLECO8 TUL J25 MCI ROKKK NITZR3 |
| Aircraft | B738/M-SDE2E3FGHIRWXY/LB1 |
Departure
| Time | 2026-05-06 12:38 |
|---|---|
| Airport | Dallas Fort Worth International Airport (KDFW) |
Arrival
| Time | N/A |
|---|---|
| Airport | Minneapolis–Saint Paul International Airport / Wold–Chamberlain Field (KMSP) |
| Time | Latitude | Longitude | Altitude | Speed | Heading |
|---|---|---|---|---|---|
| 2026-05-06 11:50 | 32.89837 | -97.04575 | 600 ft | 0 kts | 91° |
| 2026-05-06 12:23 | 32.89837 | -97.04580 | 600 ft | 2 kts | 91° |
| 2026-05-06 12:23 | 32.89838 | -97.04598 | 601 ft | 2 kts | 91° |
| 2026-05-06 12:24 | 32.89840 | -97.04616 | 601 ft | 2 kts | 109° |
| 2026-05-06 12:24 | 32.89846 | -97.04632 | 602 ft | 2 kts | 121° |
| 2026-05-06 12:24 | 32.89855 | -97.04646 | 602 ft | 2 kts | 135° |
| 2026-05-06 12:24 | 32.89867 | -97.04657 | 602 ft | 2 kts | 150° |
| 2026-05-06 12:25 | 32.89880 | -97.04665 | 603 ft | 2 kts | 164° |
| 2026-05-06 12:25 | 32.89894 | -97.04668 | 603 ft | 1 kts | 177° |
| 2026-05-06 12:25 | 32.89901 | -97.04668 | 603 ft | 1 kts | 181° |
| 2026-05-06 12:25 | 32.89902 | -97.04668 | 603 ft | 0 kts | 181° |
| 2026-05-06 12:31 | 32.89865 | -97.04668 | 603 ft | 11 kts | 181° |
| 2026-05-06 12:31 | 32.89761 | -97.04668 | 602 ft | 17 kts | 180° |
| 2026-05-06 12:31 | 32.89636 | -97.04669 | 601 ft | 20 kts | 182° |
| 2026-05-06 12:32 | 32.89552 | -97.04671 | 597 ft | 5 kts | 179° |
| 2026-05-06 12:32 | 32.89486 | -97.04669 | 595 ft | 14 kts | 180° |
| 2026-05-06 12:32 | 32.89394 | -97.04670 | 593 ft | 11 kts | 184° |
| 2026-05-06 12:32 | 32.89360 | -97.04738 | 594 ft | 9 kts | 248° |
| 2026-05-06 12:33 | 32.89279 | -97.04763 | 593 ft | 15 kts | 168° |
| 2026-05-06 12:33 | 32.89163 | -97.04767 | 589 ft | 18 kts | 183° |
| 2026-05-06 12:33 | 32.89029 | -97.04768 | 586 ft | 19 kts | 180° |
| 2026-05-06 12:33 | 32.88891 | -97.04768 | 583 ft | 20 kts | 180° |
| 2026-05-06 12:34 | 32.88742 | -97.04769 | 580 ft | 21 kts | 180° |
| 2026-05-06 12:34 | 32.88597 | -97.04770 | 578 ft | 20 kts | 180° |
| 2026-05-06 12:34 | 32.88460 | -97.04804 | 575 ft | 20 kts | 187° |
| 2026-05-06 12:34 | 32.88315 | -97.04807 | 572 ft | 21 kts | 181° |
| 2026-05-06 12:35 | 32.88171 | -97.04809 | 572 ft | 20 kts | 180° |
| 2026-05-06 12:35 | 32.88026 | -97.04810 | 570 ft | 21 kts | 180° |
| 2026-05-06 12:35 | 32.87928 | -97.04824 | 569 ft | 10 kts | 225° |
| 2026-05-06 12:35 | 32.87911 | -97.04906 | 569 ft | 11 kts | 271° |
| 2026-05-06 12:36 | 32.87911 | -97.04964 | 568 ft | 0 kts | 272° |
| 2026-05-06 12:36 | 32.87911 | -97.04965 | 568 ft | 0 kts | 272° |
| 2026-05-06 12:37 | 32.87911 | -97.04991 | 568 ft | 5 kts | 272° |
| 2026-05-06 12:37 | 32.87911 | -97.05042 | 567 ft | 7 kts | 270° |
| 2026-05-06 12:37 | 32.87940 | -97.05090 | 566 ft | 7 kts | 344° |
| 2026-05-06 12:37 | 32.87961 | -97.05092 | 567 ft | 0 kts | 359° |
| 2026-05-06 12:38 | 32.88150 | -97.05093 | 569 ft | 64 kts | 359° |
| 2026-05-06 12:38 | 32.88835 | -97.05093 | 583 ft | 130 kts | 360° |
| 2026-05-06 12:38 | 32.89878 | -97.05047 | 923 ft | 158 kts | 5° |
| 2026-05-06 12:38 | 32.90911 | -97.04918 | 1941 ft | 144 kts | 5° |
| 2026-05-06 12:39 | 32.91894 | -97.04794 | 2490 ft | 154 kts | 5° |
| 2026-05-06 12:39 | 32.92926 | -97.04780 | 3240 ft | 147 kts | 360° |
| 2026-05-06 12:39 | 32.94080 | -97.04822 | 3289 ft | 188 kts | 356° |
| 2026-05-06 12:39 | 32.95425 | -97.04957 | 3910 ft | 197 kts | 352° |
| 2026-05-06 12:40 | 32.96829 | -97.05176 | 4417 ft | 215 kts | 353° |
| 2026-05-06 12:40 | 32.98378 | -97.05290 | 4977 ft | 231 kts | 356° |
| 2026-05-06 12:40 | 33.00048 | -97.05303 | 5521 ft | 247 kts | 358° |
| 2026-05-06 12:40 | 33.01830 | -97.05308 | 6057 ft | 264 kts | 356° |
| 2026-05-06 12:41 | 33.03674 | -97.05328 | 6757 ft | 272 kts | 355° |
| 2026-05-06 12:41 | 33.05578 | -97.05353 | 7605 ft | 274 kts | 355° |
| 2026-05-06 12:41 | 33.07472 | -97.05424 | 8441 ft | 275 kts | 352° |
| 2026-05-06 12:41 | 33.09396 | -97.05640 | 8997 ft | 286 kts | 348° |
| 2026-05-06 12:42 | 33.11412 | -97.05959 | 9703 ft | 292 kts | 346° |
| 2026-05-06 12:42 | 33.13414 | -97.06286 | 10384 ft | 299 kts | 346° |
| 2026-05-06 12:42 | 33.15525 | -97.06622 | 10824 ft | 315 kts | 346° |
| 2026-05-06 12:42 | 33.17740 | -97.06956 | 11452 ft | 323 kts | 347° |
| 2026-05-06 12:43 | 33.19984 | -97.07281 | 12137 ft | 329 kts | 347° |
| 2026-05-06 12:43 | 33.22262 | -97.07608 | 12852 ft | 334 kts | 346° |
| 2026-05-06 12:43 | 33.24624 | -97.07951 | 13485 ft | 343 kts | 346° |
| 2026-05-06 12:43 | 33.26971 | -97.08291 | 14291 ft | 344 kts | 345° |
| 2026-05-06 12:44 | 33.29361 | -97.08635 | 15068 ft | 347 kts | 344° |
| 2026-05-06 12:44 | 33.31759 | -97.08981 | 15815 ft | 351 kts | 343° |
| 2026-05-06 12:44 | 33.34171 | -97.09326 | 16599 ft | 353 kts | 342° |
| 2026-05-06 12:44 | 33.36628 | -97.09679 | 17391 ft | 353 kts | 342° |
| 2026-05-06 12:45 | 33.39076 | -97.10036 | 18001 ft | 359 kts | 341° |
| 2026-05-06 12:45 | 33.41528 | -97.10397 | 18706 ft | 361 kts | 341° |
| 2026-05-06 12:45 | 33.46611 | -97.10774 | 19891 ft | 382 kts | 350° |
| 2026-05-06 12:46 | 33.49295 | -97.10562 | 20654 ft | 385 kts | 354° |
| 2026-05-06 12:46 | 33.51964 | -97.10232 | 21200 ft | 391 kts | 355° |
| 2026-05-06 12:46 | 33.54691 | -97.09853 | 21729 ft | 397 kts | 355° |
| 2026-05-06 12:46 | 33.57445 | -97.09467 | 22295 ft | 399 kts | 355° |
| 2026-05-06 12:47 | 33.60206 | -97.09085 | 22805 ft | 403 kts | 355° |
| 2026-05-06 12:47 | 33.62986 | -97.08711 | 23361 ft | 404 kts | 354° |
| 2026-05-06 12:47 | 33.65786 | -97.08340 | 23904 ft | 406 kts | 354° |
| 2026-05-06 12:47 | 33.68644 | -97.07969 | 24365 ft | 411 kts | 354° |
| 2026-05-06 12:48 | 33.71467 | -97.07606 | 24838 ft | 415 kts | 354° |
| 2026-05-06 12:48 | 33.74361 | -97.07238 | 25322 ft | 418 kts | 354° |
| 2026-05-06 12:48 | 33.77282 | -97.06867 | 25749 ft | 423 kts | 353° |
| 2026-05-06 12:48 | 33.80189 | -97.06495 | 26213 ft | 426 kts | 353° |
| 2026-05-06 12:49 | 33.83176 | -97.06117 | 26636 ft | 430 kts | 353° |
| 2026-05-06 12:49 | 33.86146 | -97.05737 | 27122 ft | 432 kts | 353° |
| 2026-05-06 12:49 | 33.89122 | -97.05354 | 27630 ft | 433 kts | 353° |
| 2026-05-06 12:49 | 33.92131 | -97.04969 | 28002 ft | 438 kts | 353° |
| 2026-05-06 12:50 | 33.95189 | -97.04582 | 28409 ft | 441 kts | 352° |
| 2026-05-06 12:50 | 33.98251 | -97.04189 | 28881 ft | 442 kts | 352° |
| 2026-05-06 12:50 | 34.01279 | -97.03802 | 29216 ft | 447 kts | 352° |
| 2026-05-06 12:50 | 34.04398 | -97.03402 | 29682 ft | 448 kts | 352° |
| 2026-05-06 12:51 | 34.07498 | -97.03007 | 29864 ft | 456 kts | 352° |
| 2026-05-06 12:51 | 34.10695 | -97.02602 | 30250 ft | 458 kts | 352° |
| 2026-05-06 12:51 | 34.13848 | -97.02199 | 30588 ft | 461 kts | 352° |
| 2026-05-06 12:51 | 34.17088 | -97.01782 | 30970 ft | 463 kts | 352° |
| 2026-05-06 12:52 | 34.20292 | -97.01369 | 31217 ft | 468 kts | 352° |
| 2026-05-06 12:52 | 34.23558 | -97.00950 | 31627 ft | 469 kts | 352° |
| 2026-05-06 12:52 | 34.26822 | -97.00528 | 31907 ft | 472 kts | 352° |
| 2026-05-06 12:52 | 34.30062 | -97.00110 | 32210 ft | 476 kts | 352° |
| 2026-05-06 12:53 | 34.33360 | -96.99678 | 32525 ft | 480 kts | 353° |
| 2026-05-06 12:53 | 34.36715 | -96.99006 | 32834 ft | 493 kts | 359° |
| 2026-05-06 12:53 | 34.40060 | -96.97935 | 33200 ft | 505 kts | 5° |
| 2026-05-06 12:53 | 34.43423 | -96.96438 | 33479 ft | 519 kts | 12° |
| 2026-05-06 12:54 | 34.46686 | -96.94565 | 33958 ft | 525 kts | 17° |
| 2026-05-06 12:54 | 34.49914 | -96.92427 | 34466 ft | 527 kts | 19° |
| 2026-05-06 12:54 | 34.53083 | -96.90196 | 35007 ft | 525 kts | 20° |
| 2026-05-06 12:54 | 34.56265 | -96.87930 | 35379 ft | 525 kts | 20° |
| 2026-05-06 12:55 | 34.59414 | -96.85709 | 35811 ft | 523 kts | 19° |
| 2026-05-06 12:55 | 34.62532 | -96.83545 | 36357 ft | 518 kts | 18° |
| 2026-05-06 12:55 | 34.65682 | -96.81396 | 36761 ft | 516 kts | 17° |
| 2026-05-06 12:55 | 34.68802 | -96.79307 | 36963 ft | 518 kts | 17° |
| 2026-05-06 12:56 | 34.72022 | -96.77182 | 37031 ft | 521 kts | 17° |
| 2026-05-06 12:56 | 34.78470 | -96.72955 | 37032 ft | 516 kts | 16° |
| 2026-05-06 12:57 | 34.84869 | -96.68771 | 37043 ft | 516 kts | 16° |
| 2026-05-06 12:57 | 34.91296 | -96.64580 | 37043 ft | 525 kts | 17° |
| 2026-05-06 12:57 | 34.94546 | -96.62463 | 37185 ft | 529 kts | 16° |
| 2026-05-06 12:58 | 34.97755 | -96.60351 | 37831 ft | 521 kts | 16° |
| 2026-05-06 12:58 | 35.00932 | -96.58253 | 38016 ft | 523 kts | 16° |
| 2026-05-06 12:58 | 35.04165 | -96.56126 | 38035 ft | 525 kts | 16° |
| 2026-05-06 12:59 | 35.08484 | -96.53281 | 38034 ft | 524 kts | 16° |